createdAt,value
2018-11-02T00:00:25.480Z,9.10
2018-11-02T00:02:54.294Z,9.20
2018-11-02T00:05:22.854Z,9.20
2018-11-02T00:07:51.333Z,9.20
2018-11-02T00:10:19.827Z,9.20
2018-11-02T00:12:48.298Z,9.10
2018-11-02T00:15:16.759Z,9.10
2018-11-02T00:17:45.246Z,9.10
2018-11-02T00:20:13.722Z,9.10
2018-11-02T00:22:42.221Z,9.00
2018-11-02T00:25:10.807Z,9.00
2018-11-02T00:27:39.282Z,8.90
2018-11-02T00:30:07.774Z,8.90
2018-11-02T00:32:36.258Z,8.80
2018-11-02T00:35:05.094Z,8.80
2018-11-02T00:37:33.587Z,8.80
2018-11-02T00:40:02.185Z,8.70
2018-11-02T00:42:30.861Z,8.70
2018-11-02T00:44:59.339Z,8.70
2018-11-02T00:47:27.797Z,8.60
2018-11-02T00:49:56.289Z,8.60
2018-11-02T00:52:24.731Z,8.60
2018-11-02T00:54:53.378Z,8.50
2018-11-02T00:57:21.865Z,8.50
2018-11-02T00:59:50.320Z,8.40
2018-11-02T01:02:18.782Z,8.40
2018-11-02T01:04:47.286Z,8.30
2018-11-02T01:07:15.756Z,8.40
2018-11-02T01:09:44.198Z,8.40
2018-11-02T01:12:12.707Z,8.30
2018-11-02T01:14:41.181Z,8.30
2018-11-02T01:17:09.667Z,8.20
2018-11-02T01:19:38.156Z,8.20
2018-11-02T01:22:06.786Z,8.20
2018-11-02T01:24:36.418Z,8.20
2018-11-02T01:27:04.942Z,8.10
2018-11-02T01:29:33.420Z,8.10
2018-11-02T01:32:01.917Z,8.10
2018-11-02T01:34:30.515Z,8.00
2018-11-02T01:36:59.069Z,8.00
2018-11-02T01:39:27.547Z,8.00
2018-11-02T01:41:56.037Z,8.00
2018-11-02T01:44:24.522Z,8.00
2018-11-02T01:46:53.007Z,7.90
2018-11-02T01:49:21.593Z,7.90
2018-11-02T01:51:50.067Z,7.90
2018-11-02T01:54:18.514Z,7.90
2018-11-02T01:56:47.016Z,7.80
2018-11-02T01:59:15.460Z,7.80
2018-11-02T02:01:44.002Z,7.70
2018-11-02T02:04:12.411Z,7.70
2018-11-02T02:06:40.896Z,7.70
2018-11-02T02:09:10.784Z,7.60
2018-11-02T02:11:39.323Z,7.60
2018-11-02T02:14:08.240Z,7.60
2018-11-02T02:16:36.815Z,7.60
2018-11-02T02:19:06.123Z,7.60
2018-11-02T02:21:34.614Z,7.60
2018-11-02T02:24:03.090Z,7.60
2018-11-02T02:26:31.678Z,7.50
2018-11-02T02:29:00.147Z,7.50
2018-11-02T02:31:28.699Z,7.50
2018-11-02T02:33:57.238Z,7.40
2018-11-02T02:36:25.778Z,7.50
2018-11-02T02:38:54.289Z,7.40
2018-11-02T02:41:22.797Z,7.40
2018-11-02T02:43:51.391Z,7.40
2018-11-02T02:46:19.904Z,7.40
2018-11-02T02:48:48.525Z,7.40
2018-11-02T02:51:17.036Z,7.40
2018-11-02T02:53:45.527Z,7.40
2018-11-02T02:56:14.072Z,7.40
2018-11-02T02:58:42.536Z,7.40
2018-11-02T03:01:11.012Z,7.40
2018-11-02T03:03:39.492Z,7.40
2018-11-02T03:06:08.016Z,7.40
2018-11-02T03:08:36.597Z,7.40
2018-11-02T03:11:05.788Z,7.30
2018-11-02T03:13:33.970Z,7.30
2018-11-02T03:16:02.500Z,7.20
2018-11-02T03:18:31.038Z,7.20
2018-11-02T03:20:59.560Z,7.20
2018-11-02T03:23:28.057Z,7.20
2018-11-02T03:25:56.669Z,7.20
2018-11-02T03:28:25.221Z,7.20
2018-11-02T03:30:53.720Z,7.20
2018-11-02T03:33:22.259Z,7.20
2018-11-02T03:35:50.793Z,7.10
2018-11-02T03:38:19.472Z,7.10
2018-11-02T03:40:48.060Z,7.10
2018-11-02T03:43:16.604Z,7.00
2018-11-02T03:45:45.101Z,7.10
2018-11-02T03:48:13.688Z,7.00
2018-11-02T03:50:42.469Z,7.00
2018-11-02T03:53:11.273Z,7.10
2018-11-02T03:55:39.791Z,7.00
2018-11-02T03:58:08.308Z,7.00
2018-11-02T04:00:36.816Z,7.00
2018-11-02T04:03:05.521Z,7.00
2018-11-02T04:05:34.048Z,7.00
2018-11-02T04:08:02.588Z,6.90
2018-11-02T04:10:31.116Z,6.90
2018-11-02T04:12:59.620Z,7.00
2018-11-02T04:15:28.173Z,6.90
2018-11-02T04:17:56.689Z,6.90
2018-11-02T04:20:25.212Z,6.90
2018-11-02T04:22:53.719Z,6.80
2018-11-02T04:25:22.340Z,6.80
2018-11-02T04:27:50.883Z,6.80
2018-11-02T04:30:19.412Z,6.80
2018-11-02T04:32:47.948Z,6.80
2018-11-02T04:35:16.488Z,6.70
2018-11-02T04:37:44.959Z,6.80
2018-11-02T04:40:13.524Z,6.80
2018-11-02T04:42:42.113Z,6.80
2018-11-02T04:45:10.641Z,6.80
2018-11-02T04:47:39.162Z,6.80
2018-11-02T04:50:08.755Z,6.80
2018-11-02T04:52:37.308Z,6.80
2018-11-02T04:55:06.516Z,6.90
2018-11-02T04:57:35.072Z,6.80
2018-11-02T05:00:04.563Z,6.90
2018-11-02T05:02:33.064Z,6.90
2018-11-02T05:05:01.588Z,6.90
2018-11-02T05:07:30.089Z,6.80
2018-11-02T05:09:58.713Z,6.80
2018-11-02T05:12:27.164Z,6.90
2018-11-02T05:14:55.754Z,6.90
2018-11-02T05:17:24.270Z,6.90
2018-11-02T05:19:52.818Z,7.00
2018-11-02T05:22:21.370Z,7.00
2018-11-02T05:24:49.875Z,7.00
2018-11-02T05:27:18.364Z,7.00
2018-11-02T05:29:46.970Z,7.00
2018-11-02T05:32:15.501Z,7.00
2018-11-02T05:34:44.020Z,7.00
2018-11-02T05:37:12.582Z,7.00
2018-11-02T05:39:41.155Z,7.00
2018-11-02T05:42:09.602Z,7.00
2018-11-02T05:44:38.128Z,7.00
2018-11-02T05:47:06.771Z,7.10
2018-11-02T05:49:35.280Z,7.10
2018-11-02T05:52:03.815Z,7.10
2018-11-02T05:54:32.312Z,7.10
2018-11-02T05:57:00.884Z,7.10
2018-11-02T05:59:29.440Z,7.10
2018-11-02T06:01:57.995Z,7.10
2018-11-02T06:04:26.516Z,7.10
2018-11-02T06:06:55.047Z,7.10
2018-11-02T06:09:23.574Z,7.10
2018-11-02T06:11:52.095Z,7.20
2018-11-02T06:14:20.616Z,7.20
2018-11-02T06:16:49.211Z,7.20
2018-11-02T06:19:17.871Z,7.20
2018-11-02T06:21:46.395Z,7.20
2018-11-02T06:24:14.943Z,7.20
2018-11-02T06:26:43.496Z,7.20
2018-11-02T06:29:12.156Z,7.20
2018-11-02T06:31:40.651Z,7.10
2018-11-02T06:34:09.163Z,7.10
2018-11-02T06:36:37.768Z,7.20
2018-11-02T06:39:08.760Z,7.20
2018-11-02T06:41:37.311Z,7.20
2018-11-02T06:44:05.824Z,7.20
2018-11-02T06:46:34.406Z,7.20
2018-11-02T06:49:02.912Z,7.20
2018-11-02T06:51:31.415Z,7.30
2018-11-02T06:53:59.973Z,7.30
2018-11-02T06:56:28.476Z,7.30
2018-11-02T06:58:57.003Z,7.20
2018-11-02T07:01:25.491Z,7.30
2018-11-02T07:03:53.997Z,7.30
2018-11-02T07:06:22.525Z,7.30
2018-11-02T07:08:51.092Z,7.30
2018-11-02T07:11:19.597Z,7.30
2018-11-02T07:13:48.116Z,7.30
2018-11-02T07:16:16.636Z,7.40
2018-11-02T07:18:45.165Z,7.40
2018-11-02T07:21:13.666Z,7.40
2018-11-02T07:23:42.200Z,7.40
2018-11-02T07:26:10.707Z,7.40
2018-11-02T07:28:39.219Z,7.40
2018-11-02T07:31:07.759Z,7.50
2018-11-02T07:33:36.283Z,7.50
2018-11-02T07:36:05.074Z,7.50
2018-11-02T07:38:33.592Z,7.60
2018-11-02T07:41:02.132Z,7.60
2018-11-02T07:43:30.662Z,7.70
2018-11-02T07:45:59.186Z,7.80
2018-11-02T07:48:27.740Z,7.90
2018-11-02T07:50:56.233Z,8.00
2018-11-02T07:53:24.760Z,8.10
2018-11-02T07:55:53.264Z,8.20
2018-11-02T07:58:21.781Z,8.30
2018-11-02T08:00:50.291Z,8.30
2018-11-02T08:03:18.744Z,8.50
2018-11-02T08:05:47.290Z,8.60
2018-11-02T08:08:15.790Z,8.70
2018-11-02T08:10:44.307Z,8.80
2018-11-02T08:13:12.804Z,8.90
2018-11-02T08:15:41.314Z,9.00
2018-11-02T08:18:09.800Z,9.10
2018-11-02T08:20:38.299Z,9.30
2018-11-02T08:23:06.834Z,9.40
2018-11-02T08:25:35.339Z,9.50
2018-11-02T08:28:03.883Z,9.70
2018-11-02T08:30:32.370Z,9.80
2018-11-02T08:33:00.851Z,10.00
2018-11-02T08:35:29.352Z,10.00
2018-11-02T08:37:57.847Z,10.20
2018-11-02T08:40:26.329Z,10.20
2018-11-02T08:42:54.825Z,10.40
2018-11-02T08:45:23.344Z,10.50
2018-11-02T08:47:51.919Z,10.60
2018-11-02T08:50:20.431Z,10.70
2018-11-02T08:52:48.941Z,10.80
2018-11-02T08:55:17.481Z,10.90
2018-11-02T08:57:46.019Z,10.90
2018-11-02T09:00:14.509Z,11.00
2018-11-02T09:02:43.027Z,11.10
2018-11-02T09:05:11.613Z,11.20
2018-11-02T09:07:40.023Z,11.30
2018-11-02T09:10:10.716Z,11.30
2018-11-02T09:12:39.299Z,11.30
2018-11-02T09:15:07.849Z,11.30
2018-11-02T09:17:36.455Z,11.40
2018-11-02T09:20:05.453Z,11.40
2018-11-02T09:22:33.962Z,11.40
2018-11-02T09:25:02.537Z,11.40
2018-11-02T09:27:31.143Z,11.40
2018-11-02T09:29:59.587Z,11.50
2018-11-02T09:32:28.094Z,11.50
2018-11-02T09:34:56.611Z,11.50
2018-11-02T09:37:25.115Z,11.40
2018-11-02T09:39:53.641Z,11.40
2018-11-02T09:42:22.143Z,11.50
2018-11-02T09:44:50.670Z,11.50
2018-11-02T09:47:19.196Z,11.50
2018-11-02T09:49:47.703Z,11.50
2018-11-02T09:52:16.267Z,11.60
2018-11-02T09:54:44.777Z,11.60
2018-11-02T09:57:13.311Z,11.60
2018-11-02T09:59:41.845Z,11.60
2018-11-02T10:02:10.446Z,11.60
2018-11-02T10:04:38.937Z,11.60
2018-11-02T10:07:07.507Z,11.60
2018-11-02T10:09:36.037Z,11.60
2018-11-02T10:12:05.060Z,11.50
2018-11-02T10:14:33.687Z,11.50
2018-11-02T10:17:02.275Z,11.50
2018-11-02T10:19:30.848Z,11.50
2018-11-02T10:21:59.380Z,11.50
2018-11-02T10:24:28.222Z,11.40
2018-11-02T10:26:56.823Z,11.40
2018-11-02T10:29:25.482Z,11.40
2018-11-02T10:31:54.092Z,11.40
2018-11-02T10:34:22.710Z,11.40
2018-11-02T10:36:51.296Z,11.40
2018-11-02T10:39:19.843Z,11.50
2018-11-02T10:41:50.552Z,11.50
2018-11-02T10:44:24.848Z,11.60
2018-11-02T10:46:53.408Z,11.60
2018-11-02T10:49:22.000Z,11.70
2018-11-02T10:51:50.487Z,11.80
2018-11-02T10:54:19.038Z,11.90
2018-11-02T10:56:47.552Z,11.90
2018-11-02T10:59:16.876Z,12.00
2018-11-02T11:01:50.394Z,12.10
2018-11-02T11:04:19.579Z,12.10
2018-11-02T11:06:48.134Z,12.10
2018-11-02T11:09:16.725Z,12.20
2018-11-02T11:11:45.442Z,12.20
2018-11-02T11:14:13.849Z,12.20
2018-11-02T11:16:42.374Z,12.30
2018-11-02T11:19:11.480Z,12.30
2018-11-02T11:21:41.169Z,12.40
2018-11-02T11:24:09.747Z,12.50
2018-11-02T11:26:38.846Z,12.60
2018-11-02T11:29:07.964Z,12.60
2018-11-02T11:31:37.043Z,12.70
2018-11-02T11:34:06.577Z,12.80
2018-11-02T11:36:35.129Z,12.80
2018-11-02T11:39:05.213Z,12.80
2018-11-02T11:41:33.745Z,12.80
2018-11-02T11:44:02.264Z,12.90
2018-11-02T11:46:30.827Z,12.90
2018-11-02T11:48:59.624Z,13.00
2018-11-02T11:51:28.029Z,13.00
2018-11-02T11:53:56.592Z,13.00
2018-11-02T11:56:25.152Z,13.00
2018-11-02T11:58:53.683Z,13.00
2018-11-02T12:01:22.228Z,13.10
2018-11-02T12:03:50.771Z,13.00
2018-11-02T12:06:19.336Z,13.10
2018-11-02T12:08:47.844Z,13.10
2018-11-02T12:11:16.468Z,13.10
2018-11-02T12:13:44.976Z,13.20
2018-11-02T12:16:13.550Z,13.20
2018-11-02T12:18:42.093Z,13.20
2018-11-02T12:21:10.609Z,13.20
2018-11-02T12:23:39.170Z,13.20
2018-11-02T12:26:07.736Z,13.20
2018-11-02T12:28:36.289Z,13.20
2018-11-02T12:31:05.174Z,13.20
2018-11-02T12:33:34.348Z,13.20
2018-11-02T12:36:02.876Z,13.20
2018-11-02T12:38:31.397Z,13.20
2018-11-02T12:40:59.909Z,13.20
2018-11-02T12:43:28.468Z,13.20
2018-11-02T12:45:56.939Z,13.10
2018-11-02T12:48:25.478Z,13.10
2018-11-02T12:50:53.967Z,13.10
2018-11-02T12:53:22.459Z,13.10
2018-11-02T12:55:50.955Z,13.10
2018-11-02T12:58:19.467Z,13.10
2018-11-02T13:00:48.019Z,13.10
2018-11-02T13:03:16.525Z,13.10
2018-11-02T13:05:45.031Z,13.10
2018-11-02T13:08:13.563Z,13.10
2018-11-02T13:10:42.083Z,13.10
2018-11-02T13:13:10.593Z,13.10
2018-11-02T13:15:39.100Z,13.10
2018-11-02T13:18:07.694Z,13.00
2018-11-02T13:20:36.121Z,13.00
2018-11-02T13:23:04.648Z,13.00
2018-11-02T13:25:33.738Z,13.00
2018-11-02T13:28:02.207Z,13.00
2018-11-02T13:30:30.879Z,12.90
2018-11-02T13:32:59.236Z,12.90
2018-11-02T13:35:27.775Z,13.00
2018-11-02T13:37:56.290Z,13.00
2018-11-02T13:40:24.825Z,12.90
2018-11-02T13:42:53.375Z,12.90
2018-11-02T13:45:21.850Z,12.90
2018-11-02T13:47:50.370Z,12.90
2018-11-02T13:50:18.918Z,12.90
2018-11-02T13:52:47.406Z,12.90
2018-11-02T13:55:15.911Z,12.90
2018-11-02T13:57:44.409Z,12.90
2018-11-02T14:00:14.267Z,12.90
2018-11-02T14:02:42.827Z,12.80
2018-11-02T14:05:12.769Z,12.70
2018-11-02T14:07:41.532Z,12.70
2018-11-02T14:10:11.032Z,12.70
2018-11-02T14:12:40.144Z,12.60
2018-11-02T14:15:11.581Z,12.70
2018-11-02T14:17:40.585Z,12.60
2018-11-02T14:20:10.395Z,12.60
2018-11-02T14:22:39.191Z,12.60
2018-11-02T14:25:09.727Z,12.50
2018-11-02T14:27:38.391Z,12.50
2018-11-02T14:30:09.782Z,12.50
2018-11-02T14:32:38.667Z,12.40
2018-11-02T14:35:07.652Z,12.40
2018-11-02T14:37:36.214Z,12.40
2018-11-02T14:40:05.327Z,12.50
2018-11-02T14:42:33.840Z,12.60
2018-11-02T14:45:02.388Z,12.50
2018-11-02T14:47:30.997Z,12.50
2018-11-02T14:49:59.495Z,12.40
2018-11-02T14:52:28.055Z,12.40
2018-11-02T14:54:56.571Z,12.40
2018-11-02T14:57:25.188Z,12.40
2018-11-02T15:02:33.956Z,12.30
2018-11-02T15:05:02.486Z,12.30
2018-11-02T15:07:31.012Z,12.30
2018-11-02T15:09:59.583Z,12.20
2018-11-02T15:12:28.076Z,12.20
2018-11-02T15:14:56.629Z,12.10
2018-11-02T15:17:25.176Z,12.10
2018-11-02T15:19:53.727Z,12.00
2018-11-02T15:22:22.296Z,12.00
2018-11-02T15:24:50.827Z,11.90
2018-11-02T15:27:19.383Z,11.80
2018-11-02T15:29:47.947Z,11.70
2018-11-02T15:32:16.481Z,11.70
2018-11-02T15:34:44.994Z,11.60
2018-11-02T15:37:13.536Z,11.50
2018-11-02T15:39:42.215Z,11.50
2018-11-02T15:42:10.748Z,11.40
2018-11-02T15:44:39.351Z,11.30
2018-11-02T15:47:07.865Z,11.20
2018-11-02T15:49:36.396Z,11.20
2018-11-02T15:52:04.989Z,11.10
2018-11-02T15:54:33.494Z,11.10
2018-11-02T15:57:02.059Z,11.00
2018-11-02T15:59:30.716Z,11.00
2018-11-02T16:01:59.219Z,11.00
2018-11-02T16:04:27.786Z,10.90
2018-11-02T16:06:56.371Z,10.80
2018-11-02T16:09:24.866Z,10.80
2018-11-02T16:11:53.422Z,10.70
2018-11-02T16:14:22.098Z,10.70
2018-11-02T16:16:50.597Z,10.70
2018-11-02T16:19:19.158Z,10.70
2018-11-02T16:21:47.723Z,10.60
2018-11-02T16:24:16.244Z,10.50
2018-11-02T16:26:44.796Z,10.50
2018-11-02T16:29:13.348Z,10.40
2018-11-02T16:31:41.888Z,10.40
2018-11-02T16:34:10.513Z,10.40
2018-11-02T16:36:38.953Z,10.40
2018-11-02T16:39:10.599Z,10.30
2018-11-02T16:41:39.833Z,10.30
2018-11-02T16:44:09.168Z,10.30
2018-11-02T16:46:37.512Z,10.30
2018-11-02T16:49:06.273Z,10.30
2018-11-02T16:51:34.839Z,10.30
2018-11-02T16:54:03.450Z,10.20
2018-11-02T16:56:32.291Z,10.10
2018-11-02T16:59:00.740Z,10.10
2018-11-02T17:01:29.291Z,10.10
2018-11-02T17:03:57.813Z,10.10
2018-11-02T17:06:26.372Z,10.10
2018-11-02T17:08:54.883Z,10.10
2018-11-02T17:11:23.413Z,10.00
2018-11-02T17:13:51.958Z,10.00
2018-11-02T17:16:20.474Z,9.90
2018-11-02T17:18:49.000Z,9.90
2018-11-02T17:21:17.528Z,9.90
2018-11-02T17:23:46.037Z,9.90
2018-11-02T17:26:14.632Z,10.00
2018-11-02T17:28:43.151Z,9.90
2018-11-02T17:31:11.669Z,9.90
2018-11-02T17:33:40.207Z,9.90
2018-11-02T17:36:08.745Z,9.80
2018-11-02T17:38:37.284Z,9.70
2018-11-02T17:41:06.392Z,9.70
2018-11-02T17:43:35.088Z,9.70
2018-11-02T17:46:03.615Z,9.70
2018-11-02T17:48:32.196Z,9.70
2018-11-02T17:51:00.704Z,9.70
2018-11-02T17:53:29.339Z,9.70
2018-11-02T17:55:57.815Z,9.70
2018-11-02T17:58:26.327Z,9.70
2018-11-02T18:00:54.849Z,9.70
2018-11-02T18:03:23.388Z,9.60
2018-11-02T18:05:51.991Z,9.60
2018-11-02T18:08:20.520Z,9.60
2018-11-02T18:10:49.128Z,9.50
2018-11-02T18:13:17.655Z,9.50
2018-11-02T18:15:46.194Z,9.50
2018-11-02T18:18:14.736Z,9.50
2018-11-02T18:20:43.264Z,9.50
2018-11-02T18:23:11.900Z,9.50
2018-11-02T18:25:40.482Z,9.50
2018-11-02T18:28:09.100Z,9.50
2018-11-02T18:30:37.609Z,9.50
2018-11-02T18:33:06.139Z,9.50
2018-11-02T18:35:34.735Z,9.50
2018-11-02T18:38:03.290Z,9.40
2018-11-02T18:40:31.844Z,9.40
2018-11-02T18:43:00.468Z,9.40
2018-11-02T18:45:29.039Z,9.40
2018-11-02T18:47:57.613Z,9.40
2018-11-02T18:50:26.124Z,9.40
2018-11-02T18:52:54.652Z,9.40
2018-11-02T18:55:23.200Z,9.30
2018-11-02T18:57:51.801Z,9.40
2018-11-02T19:00:20.396Z,9.30
2018-11-02T19:02:49.681Z,9.40
2018-11-02T19:05:19.233Z,9.30
2018-11-02T19:07:47.770Z,9.30
2018-11-02T19:10:16.352Z,9.30
2018-11-02T19:12:45.068Z,9.40
2018-11-02T19:15:18.107Z,9.30
2018-11-02T19:17:46.685Z,9.30
2018-11-02T19:20:15.663Z,9.30
2018-11-02T19:22:44.175Z,9.30
2018-11-02T19:25:13.755Z,9.30
2018-11-02T19:27:42.937Z,9.30
2018-11-02T19:30:12.374Z,9.30
2018-11-02T19:32:40.933Z,9.30
2018-11-02T19:35:11.080Z,9.30
2018-11-02T19:37:39.389Z,9.30
2018-11-02T19:40:10.045Z,9.30
2018-11-02T19:42:38.560Z,9.40
2018-11-02T19:45:07.943Z,9.40
2018-11-02T19:47:41.888Z,9.40
2018-11-02T19:50:12.469Z,9.40
2018-11-02T19:52:41.332Z,9.40
2018-11-02T19:55:11.148Z,9.40
2018-11-02T19:57:40.079Z,9.40
2018-11-02T20:00:10.856Z,9.40
2018-11-02T20:02:39.891Z,9.40
2018-11-02T20:05:10.235Z,9.40
2018-11-02T20:07:39.108Z,9.40
2018-11-02T20:10:08.424Z,9.40
2018-11-02T20:12:36.956Z,9.40
2018-11-02T20:15:06.656Z,9.40
2018-11-02T20:17:35.522Z,9.40
2018-11-02T20:20:04.564Z,9.40
2018-11-02T20:22:33.090Z,9.40
2018-11-02T20:25:01.667Z,9.40
2018-11-02T20:27:30.203Z,9.40
2018-11-02T20:29:58.779Z,9.40
2018-11-02T20:32:27.419Z,9.40
2018-11-02T20:34:55.853Z,9.40
2018-11-02T20:37:24.377Z,9.40
2018-11-02T20:39:52.921Z,9.40
2018-11-02T20:42:21.423Z,9.40
2018-11-02T20:44:49.953Z,9.40
2018-11-02T20:47:18.516Z,9.50
2018-11-02T20:49:47.068Z,9.40
2018-11-02T20:52:15.663Z,9.40
2018-11-02T20:54:44.176Z,9.40
2018-11-02T20:57:12.709Z,9.40
2018-11-02T20:59:41.271Z,9.40
2018-11-02T21:02:09.787Z,9.30
2018-11-02T21:04:38.349Z,9.30
2018-11-02T21:07:06.918Z,9.30
2018-11-02T21:09:35.648Z,9.30
2018-11-02T21:12:04.114Z,9.20
2018-11-02T21:14:32.957Z,9.20
2018-11-02T21:17:01.197Z,9.10
2018-11-02T21:19:29.733Z,9.10
2018-11-02T21:21:58.333Z,9.10
2018-11-02T21:24:26.804Z,9.10
2018-11-02T21:26:55.345Z,9.10
2018-11-02T21:29:23.892Z,9.20
2018-11-02T21:31:52.426Z,9.10
2018-11-02T21:34:20.946Z,9.10
2018-11-02T21:36:49.512Z,9.10
2018-11-02T21:39:18.068Z,9.10
2018-11-02T21:41:46.596Z,9.00
2018-11-02T21:44:15.139Z,9.10
2018-11-02T21:46:43.637Z,9.10
2018-11-02T21:49:12.189Z,9.10
2018-11-02T21:51:40.727Z,9.10
2018-11-02T21:54:09.224Z,9.10
2018-11-02T21:56:37.778Z,9.10
2018-11-02T21:59:06.747Z,9.10
2018-11-02T22:01:35.231Z,9.10
2018-11-02T22:04:03.796Z,9.20
2018-11-02T22:06:32.316Z,9.10
2018-11-02T22:09:01.032Z,9.10
2018-11-02T22:11:29.649Z,9.20
2018-11-02T22:13:58.151Z,9.20
2018-11-02T22:16:26.669Z,9.20
2018-11-02T22:18:55.217Z,9.20
2018-11-02T22:21:23.740Z,9.20
2018-11-02T22:23:52.271Z,9.20
2018-11-02T22:26:20.801Z,9.20
2018-11-02T22:28:49.357Z,9.20
2018-11-02T22:31:17.955Z,9.20
2018-11-02T22:33:46.459Z,9.20
2018-11-02T22:36:15.324Z,9.20
2018-11-02T22:38:44.103Z,9.20
2018-11-02T22:41:12.623Z,9.20
2018-11-02T22:43:41.159Z,9.20
2018-11-02T22:46:09.660Z,9.20
2018-11-02T22:48:38.205Z,9.20
2018-11-02T22:51:06.703Z,9.20
2018-11-02T22:53:35.871Z,9.20
2018-11-02T22:56:04.403Z,9.10
2018-11-02T22:58:32.945Z,9.10
2018-11-02T23:01:07.019Z,9.10
2018-11-02T23:03:35.559Z,9.10
2018-11-02T23:06:04.108Z,9.10
2018-11-02T23:08:32.701Z,9.10
2018-11-02T23:11:01.194Z,9.10
2018-11-02T23:13:29.716Z,9.20
2018-11-02T23:15:58.256Z,9.20
2018-11-02T23:18:26.840Z,9.10
2018-11-02T23:20:55.352Z,9.10
2018-11-02T23:23:23.882Z,9.10
2018-11-02T23:25:52.401Z,9.10
2018-11-02T23:28:20.974Z,9.10
2018-11-02T23:30:49.477Z,9.10
2018-11-02T23:33:17.990Z,9.10
2018-11-02T23:35:46.540Z,9.10
2018-11-02T23:38:15.036Z,9.10
2018-11-02T23:40:43.533Z,9.10
2018-11-02T23:43:12.063Z,9.10
2018-11-02T23:45:40.605Z,9.10
2018-11-02T23:48:14.464Z,9.10
2018-11-02T23:50:43.088Z,9.10
2018-11-02T23:53:11.643Z,9.10
2018-11-02T23:55:40.201Z,9.10
2018-11-02T23:58:08.772Z,9.10
